createdAt,value
2018-03-15T00:02:02.190Z,11.20
2018-03-15T00:04:34.588Z,10.63
2018-03-15T00:07:02.096Z,11.15
2018-03-15T00:09:29.598Z,11.30
2018-03-15T00:11:57.107Z,11.70
2018-03-15T00:14:24.607Z,12.43
2018-03-15T00:16:53.612Z,12.50
2018-03-15T00:19:21.107Z,13.30
2018-03-15T00:21:48.628Z,14.80
2018-03-15T00:24:16.132Z,13.85
2018-03-15T00:26:43.643Z,18.48
2018-03-15T00:29:11.149Z,14.98
2018-03-15T00:31:38.647Z,15.25
2018-03-15T00:34:06.138Z,15.60
2018-03-15T00:36:34.403Z,15.18
2018-03-15T00:39:02.691Z,14.52
2018-03-15T00:41:30.955Z,15.20
2018-03-15T00:43:59.252Z,15.75
2018-03-15T00:46:27.622Z,17.02
2018-03-15T00:48:55.883Z,16.77
2018-03-15T00:51:23.375Z,16.12
2018-03-15T00:53:50.879Z,18.73
2018-03-15T00:56:18.392Z,16.15
2018-03-15T00:58:45.907Z,16.17
2018-03-15T01:01:13.410Z,14.13
2018-03-15T01:03:40.919Z,17.85
2018-03-15T01:06:08.410Z,19.00
2018-03-15T01:08:36.683Z,18.50
2018-03-15T01:11:04.943Z,17.90
2018-03-15T01:13:33.226Z,16.50
2018-03-15T01:16:00.717Z,16.02
2018-03-15T01:18:28.215Z,16.98
2018-03-15T01:20:55.724Z,18.48
2018-03-15T01:23:23.218Z,17.40
2018-03-15T01:25:50.711Z,18.37
2018-03-15T01:28:18.979Z,18.83
2018-03-15T01:30:46.471Z,19.02
2018-03-15T01:33:14.726Z,16.77
2018-03-15T01:35:43.003Z,16.67
2018-03-15T01:38:11.265Z,18.23
2018-03-15T01:40:38.762Z,18.20
2018-03-15T01:43:06.272Z,19.23
2018-03-15T01:45:33.784Z,17.80
2018-03-15T01:48:01.279Z,16.85
2018-03-15T01:50:28.788Z,18.33
2018-03-15T01:52:56.298Z,17.33
2018-03-15T01:55:23.787Z,18.05
2018-03-15T01:57:52.054Z,16.40
2018-03-15T02:00:19.567Z,18.50
2018-03-15T02:02:47.075Z,16.80
2018-03-15T02:05:14.573Z,17.70
2018-03-15T02:07:42.071Z,18.50
2018-03-15T02:10:09.577Z,19.10
2018-03-15T02:12:37.085Z,16.87
2018-03-15T02:15:04.595Z,19.05
2018-03-15T02:17:32.106Z,16.75
2018-03-15T02:20:00.427Z,16.60
2018-03-15T02:22:28.721Z,16.73
2018-03-15T02:24:56.215Z,16.27
2018-03-15T02:27:23.727Z,19.08
2018-03-15T02:29:51.227Z,17.60
2018-03-15T02:32:18.735Z,18.10
2018-03-15T02:34:46.991Z,17.23
2018-03-15T02:37:15.250Z,17.95
2018-03-15T02:39:42.756Z,19.08
2018-03-15T02:42:10.264Z,18.40
2018-03-15T02:44:37.763Z,17.67
2018-03-15T02:47:06.023Z,19.08
2018-03-15T02:49:34.287Z,17.62
2018-03-15T02:52:01.779Z,18.17
2018-03-15T02:54:29.285Z,20.95
2018-03-15T02:56:56.788Z,18.10
2018-03-15T02:59:25.056Z,19.55
2018-03-15T03:01:53.327Z,20.48
2018-03-15T03:04:21.598Z,17.27
2018-03-15T03:06:49.202Z,20.77
2018-03-15T03:09:16.726Z,17.50
2018-03-15T03:11:44.219Z,18.70
2018-03-15T03:14:11.751Z,21.02
2018-03-15T03:16:40.012Z,18.30
2018-03-15T03:19:07.520Z,20.58
2018-03-15T03:21:35.031Z,18.80
2018-03-15T03:24:03.331Z,17.87
2018-03-15T03:26:30.843Z,18.25
2018-03-15T03:28:58.335Z,20.02
2018-03-15T03:31:26.591Z,19.20
2018-03-15T03:33:54.087Z,19.73
2018-03-15T03:36:21.587Z,20.65
2018-03-15T03:38:49.220Z,19.27
2018-03-15T03:41:16.719Z,21.73
2018-03-15T03:43:44.992Z,19.83
2018-03-15T03:46:13.260Z,22.75
2018-03-15T03:48:40.755Z,20.02
2018-03-15T03:51:09.019Z,19.35
2018-03-15T03:53:37.290Z,20.20
2018-03-15T03:56:04.792Z,19.35
2018-03-15T03:58:32.313Z,20.50
2018-03-15T04:00:59.803Z,22.30
2018-03-15T04:03:27.299Z,19.65
2018-03-15T04:05:54.790Z,17.73
2018-03-15T04:08:22.301Z,19.12
2018-03-15T04:10:49.807Z,20.85
2018-03-15T04:13:18.076Z,21.08
2018-03-15T04:15:45.599Z,19.95
2018-03-15T04:18:13.100Z,19.58
2018-03-15T04:20:40.610Z,24.77
2018-03-15T04:23:08.123Z,20.20
2018-03-15T04:25:36.384Z,21.17
2018-03-15T04:28:03.879Z,21.92
2018-03-15T04:30:31.380Z,23.45
2018-03-15T04:32:58.891Z,22.00
2018-03-15T04:35:27.171Z,20.37
2018-03-15T04:37:54.667Z,22.30
2018-03-15T04:40:22.172Z,21.98
2018-03-15T04:42:50.443Z,20.52
2018-03-15T04:45:18.715Z,21.48
2018-03-15T04:47:46.979Z,25.25
2018-03-15T04:50:15.235Z,25.25
2018-03-15T04:52:42.747Z,23.23
2018-03-15T04:55:10.243Z,23.27
2018-03-15T04:57:37.747Z,23.20
2018-03-15T05:00:06.007Z,24.27
2018-03-15T05:02:33.515Z,23.48
2018-03-15T05:05:01.012Z,25.62
2018-03-15T05:07:28.511Z,26.67
2018-03-15T05:09:56.773Z,24.83
2018-03-15T05:12:25.051Z,25.33
2018-03-15T05:14:53.320Z,27.50
2018-03-15T05:17:20.818Z,25.48
2018-03-15T05:19:48.312Z,23.77
2018-03-15T05:22:15.821Z,24.67
2018-03-15T05:24:43.347Z,27.67
2018-03-15T05:27:10.839Z,25.08
2018-03-15T05:29:38.352Z,26.12
2018-03-15T05:32:05.871Z,24.73
2018-03-15T05:34:33.367Z,25.65
2018-03-15T05:37:00.864Z,26.58
2018-03-15T05:39:29.147Z,25.70
2018-03-15T05:41:56.651Z,25.67
2018-03-15T05:44:24.161Z,26.08
2018-03-15T05:46:51.675Z,25.30
2018-03-15T05:49:19.171Z,24.25
2018-03-15T05:51:47.435Z,26.08
2018-03-15T05:54:15.712Z,26.20
2018-03-15T05:56:43.983Z,26.75
2018-03-15T05:59:11.492Z,27.80
2018-03-15T06:01:39.044Z,29.87
2018-03-15T06:04:06.539Z,29.70
2018-03-15T06:06:34.059Z,23.98
2018-03-15T06:09:01.563Z,24.67
2018-03-15T06:11:29.867Z,25.02
2018-03-15T06:13:58.185Z,27.48
2018-03-15T06:16:26.428Z,43.13
2018-03-15T06:18:54.691Z,29.08
2018-03-15T06:21:22.956Z,28.65
2018-03-15T06:23:50.474Z,26.30
2018-03-15T06:26:17.969Z,27.80
2018-03-15T06:28:45.474Z,27.58
2018-03-15T06:31:12.971Z,30.30
2018-03-15T06:33:40.479Z,29.67
2018-03-15T06:36:07.990Z,26.55
2018-03-15T06:38:35.484Z,30.88
2018-03-15T06:41:03.748Z,31.23
2018-03-15T06:43:32.003Z,30.12
2018-03-15T06:45:59.536Z,29.37
2018-03-15T06:48:27.034Z,30.33
2018-03-15T06:50:54.535Z,25.10
2018-03-15T06:53:22.044Z,29.23
2018-03-15T06:55:49.655Z,30.23
2018-03-15T06:58:17.167Z,26.90
2018-03-15T07:00:44.660Z,29.20
2018-03-15T07:03:12.160Z,27.98
2018-03-15T07:05:39.659Z,27.80
2018-03-15T07:08:07.916Z,30.23
2018-03-15T07:10:35.444Z,30.48
2018-03-15T07:13:02.955Z,28.30
2018-03-15T07:15:31.231Z,28.67
2018-03-15T07:17:59.495Z,32.40
2018-03-15T07:20:27.755Z,30.58
2018-03-15T07:22:55.251Z,27.35
2018-03-15T07:25:22.763Z,28.38
2018-03-15T07:27:50.259Z,31.50
2018-03-15T07:30:18.527Z,27.50
2018-03-15T07:32:46.823Z,28.70
2018-03-15T07:35:14.360Z,31.08
2018-03-15T07:37:42.635Z,32.83
2018-03-15T07:40:10.900Z,28.77
2018-03-15T07:42:38.393Z,28.52
2018-03-15T07:45:05.915Z,27.55
2018-03-15T07:47:33.528Z,30.40
2018-03-15T07:50:01.032Z,26.30
2018-03-15T07:52:28.527Z,29.35
2018-03-15T07:54:56.039Z,29.23
2018-03-15T07:57:23.555Z,30.02
2018-03-15T07:59:51.076Z,30.33
2018-03-15T08:02:19.354Z,25.30
2018-03-15T08:04:47.677Z,27.23
2018-03-15T08:07:15.211Z,29.20
2018-03-15T08:09:43.480Z,28.83
2018-03-15T08:12:11.749Z,29.73
2018-03-15T08:14:40.064Z,27.73
2018-03-15T08:17:07.562Z,23.85
2018-03-15T08:19:35.067Z,29.10
2018-03-15T08:22:02.567Z,27.70
2018-03-15T08:24:30.068Z,26.83
2018-03-15T08:26:58.326Z,25.10
2018-03-15T08:29:25.821Z,28.20
2018-03-15T08:31:53.320Z,32.97
2018-03-15T08:34:20.811Z,26.65
2018-03-15T08:36:49.079Z,26.83
2018-03-15T08:39:16.591Z,28.00
2018-03-15T08:41:44.104Z,26.90
2018-03-15T08:44:12.372Z,25.27
2018-03-15T08:46:39.875Z,26.87
2018-03-15T08:49:07.367Z,24.58
2018-03-15T08:51:34.868Z,26.87
2018-03-15T08:54:03.148Z,27.33
2018-03-15T08:56:30.646Z,29.77
2018-03-15T08:58:58.151Z,27.17
2018-03-15T09:01:26.415Z,25.80
2018-03-15T09:03:53.941Z,23.77
2018-03-15T09:06:21.585Z,26.02
2018-03-15T09:08:49.730Z,24.30
2018-03-15T09:11:17.991Z,24.80
2018-03-15T09:13:46.259Z,24.65
2018-03-15T09:16:13.970Z,25.05
2018-03-15T09:18:41.491Z,24.30
2018-03-15T09:21:08.971Z,23.52
2018-03-15T09:23:36.526Z,25.20
2018-03-15T09:26:03.996Z,23.70
2018-03-15T09:28:31.531Z,24.48
2018-03-15T09:30:59.804Z,23.12
2018-03-15T09:33:28.192Z,27.60
2018-03-15T09:35:55.705Z,26.90
2018-03-15T09:38:23.219Z,25.08
2018-03-15T09:40:50.731Z,23.70
2018-03-15T09:43:18.238Z,24.55
2018-03-15T09:45:45.794Z,27.13
2018-03-15T09:48:13.259Z,23.30
2018-03-15T09:50:40.783Z,22.35
2018-03-15T09:53:09.059Z,22.58
2018-03-15T09:55:37.331Z,22.52
2018-03-15T09:58:05.607Z,22.65
2018-03-15T10:00:33.896Z,21.75
2018-03-15T10:03:01.409Z,20.60
2018-03-15T10:05:28.919Z,20.33
2018-03-15T10:07:56.482Z,17.95
2018-03-15T10:10:23.991Z,17.70
2018-03-15T10:12:51.527Z,17.35
2018-03-15T10:15:19.043Z,17.62
2018-03-15T10:17:47.331Z,17.17
2018-03-15T10:20:15.637Z,17.40
2018-03-15T10:22:43.167Z,16.55
2018-03-15T10:25:13.770Z,21.77
2018-03-15T10:27:38.214Z,17.17
2018-03-15T10:30:05.726Z,16.40
2018-03-15T10:32:34.002Z,17.00
2018-03-15T10:35:08.019Z,18.05
2018-03-15T10:37:39.293Z,18.70
2018-03-15T10:40:06.803Z,20.10
2018-03-15T10:42:34.308Z,17.95
2018-03-15T10:45:01.820Z,17.58
2018-03-15T10:47:29.341Z,16.75
2018-03-15T10:49:56.879Z,18.48
2018-03-15T10:52:24.407Z,17.00
2018-03-15T10:54:52.702Z,17.90
2018-03-15T10:57:20.974Z,18.65
2018-03-15T10:59:49.313Z,20.80
2018-03-15T11:02:18.730Z,18.20
2018-03-15T11:04:52.039Z,17.87
2018-03-15T11:07:25.248Z,19.25
2018-03-15T11:09:52.760Z,21.05
2018-03-15T11:12:20.280Z,18.08
2018-03-15T11:14:47.797Z,18.52
2018-03-15T11:17:16.340Z,20.52
2018-03-15T11:19:43.852Z,19.98
2018-03-15T11:22:12.142Z,18.67
2018-03-15T11:24:40.436Z,22.02
2018-03-15T11:27:07.949Z,19.83
2018-03-15T11:29:35.471Z,20.90
2018-03-15T11:32:02.992Z,19.02
2018-03-15T11:34:30.528Z,19.90
2018-03-15T11:36:59.556Z,18.45
2018-03-15T11:39:27.100Z,20.15
2018-03-15T11:41:54.983Z,19.33
2018-03-15T11:44:22.517Z,20.40
2018-03-15T11:46:50.800Z,18.37
2018-03-15T11:49:19.099Z,18.90
2018-03-15T11:51:46.651Z,17.55
2018-03-15T11:54:14.241Z,18.65
2018-03-15T11:56:41.765Z,16.85
2018-03-15T11:59:09.283Z,16.92
2018-03-15T12:01:37.647Z,16.67
2018-03-15T12:04:05.127Z,17.40
2018-03-15T12:06:32.652Z,19.40
2018-03-15T12:09:00.168Z,15.88
2018-03-15T12:11:28.489Z,18.00
2018-03-15T12:13:56.027Z,17.27
2018-03-15T12:16:23.568Z,15.75
2018-03-15T12:18:51.835Z,18.98
2018-03-15T12:21:19.367Z,16.52
2018-03-15T12:23:46.888Z,16.77
2018-03-15T12:26:14.395Z,21.05
2018-03-15T12:28:41.921Z,16.33
2018-03-15T12:31:09.451Z,20.20
2018-03-15T12:33:37.718Z,16.45
2018-03-15T12:36:06.002Z,21.05
2018-03-15T12:38:34.280Z,16.35
2018-03-15T12:41:02.975Z,18.27
2018-03-15T12:43:30.487Z,18.17
2018-03-15T12:45:58.002Z,15.85
2018-03-15T12:48:25.511Z,18.30
2018-03-15T12:50:53.232Z,15.60
2018-03-15T12:53:20.731Z,17.27
2018-03-15T12:55:48.355Z,18.67
2018-03-15T12:58:15.866Z,24.87
2018-03-15T13:00:44.151Z,17.58
2018-03-15T13:03:12.449Z,19.33
2018-03-15T13:05:39.974Z,20.27
2018-03-15T13:08:07.488Z,25.58
2018-03-15T13:10:35.015Z,20.23
2018-03-15T13:13:03.290Z,18.90
2018-03-15T13:15:31.595Z,19.90
2018-03-15T13:17:59.135Z,21.25
2018-03-15T13:20:26.640Z,29.80
2018-03-15T13:22:54.165Z,20.52
2018-03-15T13:25:21.667Z,28.12
2018-03-15T13:27:49.181Z,23.10
2018-03-15T13:30:16.720Z,22.45
2018-03-15T13:32:45.218Z,24.37
2018-03-15T13:35:12.726Z,26.20
2018-03-15T13:37:40.229Z,24.00
2018-03-15T13:40:07.731Z,35.60
2018-03-15T13:42:35.290Z,35.42
2018-03-15T13:45:02.875Z,27.40
2018-03-15T13:47:30.324Z,27.95
2018-03-15T13:49:57.832Z,28.40
2018-03-15T13:52:25.327Z,28.77
2018-03-15T13:54:52.828Z,29.90
2018-03-15T13:57:20.335Z,34.40
2018-03-15T13:59:47.826Z,30.77
2018-03-15T14:02:15.339Z,30.15
2018-03-15T14:04:42.835Z,28.62
2018-03-15T14:07:10.341Z,28.75
2018-03-15T14:09:37.866Z,29.37
2018-03-15T14:12:06.139Z,31.20
2018-03-15T14:14:33.706Z,31.48
2018-03-15T14:17:01.175Z,30.00
2018-03-15T14:19:28.677Z,28.30
2018-03-15T14:21:56.195Z,33.35
2018-03-15T14:24:23.711Z,29.12
2018-03-15T14:26:51.231Z,27.83
2018-03-15T14:29:18.734Z,36.05
2018-03-15T14:31:46.240Z,30.00
2018-03-15T14:34:13.785Z,37.30
2018-03-15T14:36:41.343Z,30.02
2018-03-15T14:39:09.604Z,34.58
2018-03-15T14:41:37.887Z,32.33
2018-03-15T14:44:06.151Z,30.40
2018-03-15T14:46:34.141Z,27.00
2018-03-15T14:49:01.764Z,30.00
2018-03-15T14:51:29.299Z,28.73
2018-03-15T14:53:56.775Z,27.75
2018-03-15T14:56:24.279Z,36.05
2018-03-15T14:58:52.539Z,29.98
2018-03-15T15:01:20.831Z,30.62
2018-03-15T15:03:49.319Z,28.30
2018-03-15T15:06:16.844Z,27.58
2018-03-15T15:08:44.353Z,28.58
2018-03-15T15:11:11.879Z,28.90
2018-03-15T15:13:40.151Z,29.20
2018-03-15T15:16:08.438Z,28.67
2018-03-15T15:18:36.707Z,27.70
2018-03-15T15:21:04.988Z,27.75
2018-03-15T15:23:33.258Z,27.25
2018-03-15T15:26:01.536Z,31.40
2018-03-15T15:28:29.796Z,28.00
2018-03-15T15:30:57.328Z,24.45
2018-03-15T15:33:24.823Z,28.90
2018-03-15T15:35:52.398Z,30.35
2018-03-15T15:38:20.671Z,25.67
2018-03-15T15:40:48.935Z,28.02
2018-03-15T15:43:16.434Z,27.37
2018-03-15T15:45:43.936Z,25.40
2018-03-15T15:48:11.439Z,26.30
2018-03-15T15:50:38.986Z,27.13
2018-03-15T15:53:07.247Z,27.70
2018-03-15T15:55:35.514Z,29.15
2018-03-15T15:58:03.010Z,28.00
2018-03-15T16:00:30.512Z,27.65
2018-03-15T16:02:58.019Z,28.25
2018-03-15T16:05:25.599Z,25.95
2018-03-15T16:07:53.097Z,22.35
2018-03-15T16:10:20.598Z,26.65
2018-03-15T16:12:48.114Z,24.23
2018-03-15T16:15:15.631Z,27.80
2018-03-15T16:17:43.135Z,23.42
2018-03-15T16:20:10.631Z,23.73
2018-03-15T16:22:38.137Z,28.05
2018-03-15T16:25:05.645Z,25.83
2018-03-15T16:27:33.152Z,27.08
2018-03-15T16:30:00.651Z,24.20
2018-03-15T16:32:28.944Z,28.40
2018-03-15T16:34:56.460Z,23.65
2018-03-15T16:37:23.986Z,23.70
2018-03-15T16:39:51.468Z,23.83
2018-03-15T16:42:18.959Z,22.23
2018-03-15T16:44:47.238Z,24.87
2018-03-15T16:47:15.503Z,24.27
2018-03-15T16:49:43.779Z,26.55
2018-03-15T16:52:12.059Z,22.27
2018-03-15T16:54:40.344Z,24.10
2018-03-15T16:57:08.607Z,23.52
2018-03-15T16:59:36.104Z,21.37
2018-03-15T17:02:03.619Z,24.27
2018-03-15T17:04:31.128Z,22.65
2018-03-15T17:06:58.635Z,22.83
2018-03-15T17:09:26.899Z,22.15
2018-03-15T17:11:54.408Z,25.15
2018-03-15T17:14:21.904Z,21.33
2018-03-15T17:16:49.422Z,22.83
2018-03-15T17:19:16.924Z,24.50
2018-03-15T17:21:44.443Z,22.23
2018-03-15T17:24:12.001Z,24.12
2018-03-15T17:26:39.470Z,23.40
2018-03-15T17:29:06.971Z,24.60
2018-03-15T17:31:34.476Z,27.05
2018-03-15T17:34:01.987Z,26.62
2018-03-15T17:36:29.502Z,27.98
2018-03-15T17:38:57.007Z,27.17
2018-03-15T17:41:24.506Z,29.15
2018-03-15T17:43:52.080Z,30.62
2018-03-15T17:46:19.595Z,26.77
2018-03-15T17:48:47.104Z,29.00
2018-03-15T17:51:14.618Z,29.87
2018-03-15T17:53:42.883Z,28.45
2018-03-15T17:56:10.399Z,28.98
2018-03-15T17:58:37.911Z,28.10
2018-03-15T18:01:06.180Z,33.47
2018-03-15T18:03:33.693Z,32.10
2018-03-15T18:06:01.198Z,27.15
2018-03-15T18:08:29.476Z,28.45
2018-03-15T18:10:57.759Z,31.30
2018-03-15T18:13:25.255Z,34.90
2018-03-15T18:15:52.789Z,34.05
2018-03-15T18:18:21.060Z,30.37
2018-03-15T18:20:49.320Z,29.73
2018-03-15T18:23:16.816Z,35.25
2018-03-15T18:25:44.346Z,31.95
2018-03-15T18:28:12.637Z,35.53
2018-03-15T18:30:40.916Z,34.38
2018-03-15T18:33:08.431Z,35.05
2018-03-15T18:35:35.939Z,34.28
2018-03-15T18:38:03.439Z,35.97
2018-03-15T18:40:30.939Z,36.00
2018-03-15T18:42:59.204Z,37.15
2018-03-15T18:45:27.480Z,36.00
2018-03-15T18:47:55.738Z,37.58
2018-03-15T18:50:23.231Z,37.88
2018-03-15T18:52:51.511Z,37.00
2018-03-15T18:55:19.847Z,39.45
2018-03-15T18:57:47.336Z,37.20
2018-03-15T19:00:15.612Z,37.15
2018-03-15T19:02:43.903Z,39.50
2018-03-15T19:05:11.400Z,36.40
2018-03-15T19:07:38.904Z,36.88
2018-03-15T19:10:07.171Z,34.63
2018-03-15T19:12:34.683Z,34.88
2018-03-15T19:15:02.180Z,36.47
2018-03-15T19:17:29.691Z,34.15
2018-03-15T19:19:57.188Z,33.63
2018-03-15T19:22:24.684Z,33.55
2018-03-15T19:24:52.939Z,35.35
2018-03-15T19:27:20.451Z,35.53
2018-03-15T19:29:47.956Z,32.60
2018-03-15T19:32:15.783Z,32.55
2018-03-15T19:34:43.323Z,38.28
2018-03-15T19:37:10.835Z,34.25
2018-03-15T19:39:38.355Z,34.65
2018-03-15T19:42:05.844Z,36.10
2018-03-15T19:44:33.461Z,33.90
2018-03-15T19:47:00.954Z,33.83
2018-03-15T19:49:28.446Z,32.50
2018-03-15T19:51:56.746Z,35.83
2018-03-15T19:54:24.993Z,33.10
2018-03-15T19:56:53.252Z,35.20
2018-03-15T19:59:20.771Z,33.88
2018-03-15T20:01:48.272Z,29.90
2018-03-15T20:04:15.767Z,35.30
2018-03-15T20:06:43.263Z,29.75
2018-03-15T20:09:10.756Z,33.53
2018-03-15T20:11:38.263Z,30.85
2018-03-15T20:14:05.814Z,32.55
2018-03-15T20:16:33.329Z,28.98
2018-03-15T20:19:06.517Z,27.42
2018-03-15T20:21:34.069Z,30.75
2018-03-15T20:24:07.170Z,30.10
2018-03-15T20:26:34.684Z,39.45
2018-03-15T20:29:02.183Z,31.98
2018-03-15T20:31:29.687Z,30.25
2018-03-15T20:34:02.947Z,60.08
2018-03-15T20:36:31.262Z,45.83
2018-03-15T20:38:58.775Z,30.85
2018-03-15T20:41:28.231Z,30.00
2018-03-15T20:43:55.783Z,30.37
2018-03-15T20:59:44.867Z,30.25
2018-03-15T21:02:12.371Z,32.72
2018-03-15T21:04:40.632Z,31.02
2018-03-15T21:07:08.895Z,29.85
2018-03-15T21:09:36.409Z,28.58
2018-03-15T21:12:03.931Z,27.20
2018-03-15T21:14:32.187Z,31.90
2018-03-15T21:16:59.796Z,30.92
2018-03-15T21:19:27.308Z,32.88
2018-03-15T21:21:55.634Z,32.10
2018-03-15T21:24:23.131Z,32.92
2018-03-15T21:26:50.646Z,29.35
2018-03-15T21:29:18.135Z,33.30
2018-03-15T21:31:45.627Z,32.75
2018-03-15T21:34:13.887Z,32.45
2018-03-15T21:36:41.400Z,29.17
2018-03-15T21:39:08.952Z,32.60
2018-03-15T21:41:36.454Z,33.95
2018-03-15T21:44:03.950Z,33.20
2018-03-15T21:46:32.220Z,27.75
2018-03-15T21:49:00.503Z,33.83
2018-03-15T21:51:28.778Z,27.48
2018-03-15T21:53:57.038Z,30.42
2018-03-15T21:56:24.544Z,30.52
2018-03-15T21:58:52.056Z,31.27
2018-03-15T22:01:20.343Z,29.67
2018-03-15T22:03:48.619Z,31.52
2018-03-15T22:06:16.900Z,29.00
2018-03-15T22:08:45.171Z,28.45
2018-03-15T22:11:13.566Z,30.75
2018-03-15T22:13:41.724Z,25.37
2018-03-15T22:16:09.994Z,30.60
2018-03-15T22:18:38.260Z,27.48
2018-03-15T22:21:05.761Z,28.27
2018-03-15T22:23:33.259Z,29.25
2018-03-15T22:26:00.818Z,28.45
2018-03-15T22:28:28.319Z,27.65
2018-03-15T22:30:56.594Z,27.62
2018-03-15T22:33:24.876Z,29.00
2018-03-15T22:35:52.371Z,25.40
2018-03-15T22:38:19.871Z,29.65
2018-03-15T22:40:47.384Z,28.52
2018-03-15T22:43:14.875Z,36.33
2018-03-15T22:45:42.394Z,26.92
2018-03-15T22:48:09.884Z,24.85
2018-03-15T22:50:37.375Z,23.15
2018-03-15T22:53:05.655Z,26.30
2018-03-15T22:55:33.914Z,24.02
2018-03-15T22:58:01.414Z,23.87
2018-03-15T23:00:28.924Z,26.55
2018-03-15T23:02:56.435Z,24.75
2018-03-15T23:05:23.926Z,24.63
2018-03-15T23:07:51.419Z,21.35
2018-03-15T23:10:19.699Z,21.02
2018-03-15T23:12:47.959Z,23.92
2018-03-15T23:15:15.471Z,24.05
2018-03-15T23:17:42.963Z,22.60
2018-03-15T23:20:10.543Z,21.45
2018-03-15T23:22:38.007Z,22.15
2018-03-15T23:25:06.312Z,24.12
2018-03-15T23:27:33.807Z,29.50
2018-03-15T23:30:01.306Z,23.08
2018-03-15T23:32:29.586Z,20.42
2018-03-15T23:34:57.092Z,23.83
2018-03-15T23:37:24.595Z,20.58
2018-03-15T23:39:52.868Z,22.20
2018-03-15T23:42:21.147Z,21.33
2018-03-15T23:44:49.407Z,20.50
2018-03-15T23:47:16.910Z,22.35
2018-03-15T23:49:44.418Z,18.45
2018-03-15T23:52:11.915Z,20.30
2018-03-15T23:54:39.414Z,18.87
2018-03-15T23:57:06.908Z,20.05
2018-03-15T23:59:35.173Z,20.37
